Terminal Aerodrome Forecast
Issued by NWS Green Bay, WI

Home | Current Version | Previous Version | Graphics & Text | Print | Product List | Glossary On
Versions: 1 2 3 4 5 6 7 8 9 10 11 12 13 14 15 16 17 18 19 20 21 22 23 24 25 26 27 28
000
FTUS43 KGRB 142200 AAA
TAFGRB
TAF AMD
KGRB 142241Z 1423/1518 23011G18KT P6SM SCT035 BKN060
     FM150000 24008KT P6SM SCT045 BKN120
     FM150700 24005KT 5SM -SHRA BKN090
      TEMPO 1509/1513 3SM -SHRA BR BKN045
     FM151700 27006KT P6SM VCSH BKN120=

USA.gov is the U.S. government's official web portal to all federal, state and local government web resources and services.